createdAt,value
2019-02-28T00:00:59.507Z,18.70
2019-02-28T00:03:48.089Z,18.70
2019-02-28T00:06:36.287Z,18.60
2019-02-28T00:09:25.704Z,18.60
2019-02-28T00:12:15.202Z,18.60
2019-02-28T00:15:06.372Z,18.60
2019-02-28T00:17:54.686Z,18.50
2019-02-28T00:20:43.184Z,18.50
2019-02-28T00:23:31.893Z,18.50
2019-02-28T00:26:21.504Z,18.40
2019-02-28T00:29:10.423Z,18.40
2019-02-28T00:31:59.187Z,18.40
2019-02-28T00:34:47.369Z,18.30
2019-02-28T00:37:35.437Z,18.30
2019-02-28T00:40:23.991Z,18.20
2019-02-28T00:43:12.653Z,18.20
2019-02-28T00:46:01.407Z,18.20
2019-02-28T00:48:52.959Z,18.10
2019-02-28T00:51:39.343Z,18.10
2019-02-28T00:54:27.764Z,18.10
2019-02-28T00:57:16.002Z,18.10
2019-02-28T01:00:06.547Z,18.10
2019-02-28T01:02:55.114Z,18.00
2019-02-28T01:05:43.455Z,18.00
2019-02-28T01:08:31.515Z,18.10
2019-02-28T01:11:20.268Z,18.10
2019-02-28T01:14:09.119Z,18.10
2019-02-28T01:16:57.485Z,18.10
2019-02-28T01:19:46.237Z,18.10
2019-02-28T01:22:34.551Z,18.10
2019-02-28T01:25:23.050Z,18.10
2019-02-28T01:28:11.444Z,18.10
2019-02-28T01:31:00.111Z,18.10
2019-02-28T01:33:48.730Z,18.20
2019-02-28T01:36:37.048Z,18.20
2019-02-28T01:39:25.547Z,18.10
2019-02-28T01:42:16.312Z,18.10
2019-02-28T01:45:07.089Z,18.10
2019-02-28T01:47:56.329Z,18.20
2019-02-28T01:50:44.983Z,18.10
2019-02-28T01:53:33.747Z,18.10
2019-02-28T01:56:22.230Z,18.10
2019-02-28T01:59:10.507Z,18.10
2019-02-28T02:02:05.759Z,18.00
2019-02-28T02:04:50.390Z,18.10
2019-02-28T02:07:38.920Z,18.00
2019-02-28T02:10:27.448Z,18.00
2019-02-28T02:13:16.649Z,18.00
2019-02-28T02:16:05.577Z,17.90
2019-02-28T02:18:53.922Z,17.90
2019-02-28T02:21:42.486Z,17.90
2019-02-28T02:24:30.714Z,17.90
2019-02-28T02:27:20.315Z,17.80
2019-02-28T02:30:25.060Z,17.80
2019-02-28T02:33:14.637Z,17.80
2019-02-28T02:36:04.187Z,17.80
2019-02-28T02:38:52.672Z,17.80
2019-02-28T02:41:41.596Z,17.70
2019-02-28T02:44:31.880Z,17.70
2019-02-28T02:47:20.751Z,17.70
2019-02-28T02:50:15.557Z,17.70
2019-02-28T02:53:05.535Z,17.70
2019-02-28T02:55:53.737Z,17.60
2019-02-28T02:58:42.367Z,17.60
2019-02-28T03:01:31.546Z,17.60
2019-02-28T03:04:23.126Z,17.60
2019-02-28T03:07:10.094Z,17.60
2019-02-28T03:09:58.551Z,17.70
2019-02-28T03:12:48.061Z,17.70
2019-02-28T03:15:36.549Z,17.70
2019-02-28T03:18:07.313Z,17.80
2019-02-28T03:20:55.938Z,17.80
2019-02-28T03:23:44.260Z,17.80
2019-02-28T03:26:32.328Z,17.90
2019-02-28T03:29:20.529Z,17.90
2019-02-28T03:32:08.743Z,17.90
2019-02-28T03:34:59.270Z,17.90
2019-02-28T03:37:47.215Z,17.90
2019-02-28T03:40:39.818Z,17.90
2019-02-28T03:43:25.892Z,17.90
2019-02-28T03:46:14.380Z,17.90
2019-02-28T03:49:03.303Z,17.90
2019-02-28T03:51:53.338Z,17.90
2019-02-28T03:54:41.645Z,17.90
2019-02-28T03:57:30.587Z,17.90
2019-02-28T04:00:23.820Z,17.80
2019-02-28T04:03:12.362Z,17.80
2019-02-28T04:06:03.850Z,17.80
2019-02-28T04:08:50.927Z,17.80
2019-02-28T04:11:39.308Z,17.80
2019-02-28T04:14:28.349Z,17.70
2019-02-28T04:17:17.764Z,17.70
2019-02-28T04:20:07.761Z,17.70
2019-02-28T04:22:59.937Z,17.70
2019-02-28T04:25:45.992Z,17.60
2019-02-28T04:28:34.441Z,17.60
2019-02-28T04:31:23.294Z,17.60
2019-02-28T04:34:13.502Z,17.60
2019-02-28T04:37:01.782Z,17.50
2019-02-28T04:39:50.023Z,17.50
2019-02-28T04:42:38.331Z,17.50
2019-02-28T04:45:27.108Z,17.50
2019-02-28T04:48:15.474Z,17.50
2019-02-28T04:51:05.806Z,17.50
2019-02-28T04:53:54.196Z,17.60
2019-02-28T04:56:45.571Z,17.60
2019-02-28T04:59:34.370Z,17.60
2019-02-28T05:02:22.500Z,17.70
2019-02-28T05:05:12.586Z,17.70
2019-02-28T05:08:04.653Z,17.70
2019-02-28T05:10:55.661Z,17.80
2019-02-28T05:13:41.223Z,17.80
2019-02-28T05:16:29.648Z,17.80
2019-02-28T05:19:13.666Z,17.80
2019-02-28T05:22:02.602Z,17.80
2019-02-28T05:24:51.007Z,17.80
2019-02-28T05:27:39.286Z,17.80
2019-02-28T05:30:27.509Z,17.80
2019-02-28T05:33:15.814Z,17.80
2019-02-28T05:36:04.413Z,17.70
2019-02-28T05:38:55.981Z,17.70
2019-02-28T05:41:43.441Z,17.70
2019-02-28T05:44:31.843Z,17.70
2019-02-28T05:47:20.353Z,17.70
2019-02-28T05:50:15.563Z,17.60
2019-02-28T05:53:03.046Z,17.70
2019-02-28T05:55:51.391Z,17.60
2019-02-28T05:58:40.336Z,17.60
2019-02-28T06:01:28.674Z,17.60
2019-02-28T06:04:17.333Z,17.60
2019-02-28T06:07:05.864Z,17.60
2019-02-28T06:09:53.994Z,17.70
2019-02-28T06:12:43.666Z,17.60
2019-02-28T06:15:34.285Z,17.70
2019-02-28T06:18:22.988Z,17.60
2019-02-28T06:21:11.368Z,17.60
2019-02-28T06:23:59.700Z,17.60
2019-02-28T06:26:47.716Z,17.60
2019-02-28T06:29:36.705Z,17.60
2019-02-28T06:32:27.341Z,17.60
2019-02-28T06:35:17.753Z,17.50
2019-02-28T06:38:06.739Z,17.50
2019-02-28T06:40:55.933Z,17.50
2019-02-28T06:43:44.376Z,17.50
2019-02-28T06:46:33.033Z,17.50
2019-02-28T06:49:21.293Z,17.50
2019-02-28T06:52:10.068Z,17.40
2019-02-28T06:54:58.352Z,17.40
2019-02-28T06:57:46.710Z,17.40
2019-02-28T07:00:35.127Z,17.40
2019-02-28T07:03:05.775Z,17.40
2019-02-28T07:05:53.752Z,17.40
2019-02-28T07:08:42.361Z,17.40
2019-02-28T07:11:30.692Z,17.40
2019-02-28T07:14:18.878Z,17.50
2019-02-28T07:17:07.686Z,17.60
2019-02-28T07:20:02.068Z,17.70
2019-02-28T07:22:54.665Z,17.80
2019-02-28T07:25:39.270Z,17.90
2019-02-28T07:28:28.689Z,18.00
2019-02-28T07:31:17.287Z,18.10
2019-02-28T07:34:05.808Z,18.30
2019-02-28T07:36:54.198Z,18.40
2019-02-28T07:39:42.475Z,18.50
2019-02-28T07:42:33.673Z,18.50
2019-02-28T07:45:21.640Z,18.50
2019-02-28T07:48:10.028Z,18.50
2019-02-28T07:50:59.277Z,18.60
2019-02-28T07:53:48.116Z,18.70
2019-02-28T07:56:42.505Z,18.80
2019-02-28T07:59:26.712Z,18.90
2019-02-28T08:02:15.248Z,18.90
2019-02-28T08:05:06.058Z,18.90
2019-02-28T08:07:54.879Z,19.00
2019-02-28T08:10:42.802Z,19.10
2019-02-28T08:13:31.240Z,19.20
2019-02-28T08:16:19.500Z,19.30
2019-02-28T08:19:08.222Z,19.50
2019-02-28T08:21:56.651Z,19.70
2019-02-28T08:24:45.566Z,19.90
2019-02-28T08:27:33.726Z,20.10
2019-02-28T08:30:24.709Z,20.20
2019-02-28T08:33:16.324Z,20.30
2019-02-28T08:36:05.387Z,20.50
2019-02-28T08:38:54.067Z,20.60
2019-02-28T08:41:43.095Z,20.70
2019-02-28T08:44:31.473Z,20.80
2019-02-28T08:47:21.063Z,20.80
2019-02-28T08:50:12.319Z,20.80
2019-02-28T08:53:06.951Z,20.80
2019-02-28T08:55:54.977Z,20.90
2019-02-28T08:58:43.797Z,21.10
2019-02-28T09:01:32.346Z,21.20
2019-02-28T09:04:04.987Z,21.20
2019-02-28T09:06:54.489Z,21.30
2019-02-28T09:09:43.565Z,21.40
2019-02-28T09:12:33.342Z,21.40
2019-02-28T09:15:22.690Z,21.50
2019-02-28T09:18:11.215Z,21.50
2019-02-28T09:20:59.437Z,21.70
2019-02-28T09:23:48.128Z,21.80
2019-02-28T09:26:36.255Z,21.90
2019-02-28T09:29:24.486Z,22.10
2019-02-28T09:32:14.181Z,22.20
2019-02-28T09:35:06.375Z,22.20
2019-02-28T09:37:53.855Z,22.30
2019-02-28T09:40:42.200Z,22.30
2019-02-28T09:43:31.145Z,22.30
2019-02-28T09:46:19.514Z,22.30
2019-02-28T09:49:11.793Z,22.50
2019-02-28T09:51:57.780Z,22.50
2019-02-28T09:54:46.403Z,22.50
2019-02-28T09:57:35.154Z,22.60
2019-02-28T10:00:27.641Z,22.80
2019-02-28T10:03:18.627Z,22.80
2019-02-28T10:06:06.291Z,22.90
2019-02-28T10:08:55.409Z,23.00
2019-02-28T10:11:44.402Z,23.00
2019-02-28T10:14:34.578Z,22.90
2019-02-28T10:17:25.929Z,22.90
2019-02-28T10:19:55.321Z,22.90
2019-02-28T10:22:26.341Z,22.80
2019-02-28T10:24:56.998Z,22.80
2019-02-28T10:27:27.758Z,22.90
2019-02-28T10:29:58.402Z,23.00
2019-02-28T10:32:34.794Z,23.00
2019-02-28T10:35:07.263Z,23.00
2019-02-28T10:37:38.364Z,22.90
2019-02-28T10:40:23.555Z,22.90
2019-02-28T10:42:54.673Z,23.00
2019-02-28T10:45:25.901Z,23.00
2019-02-28T10:47:57.000Z,23.00
2019-02-28T10:50:33.313Z,23.10
2019-02-28T10:53:05.546Z,23.10
2019-02-28T10:55:34.598Z,23.00
2019-02-28T10:58:05.382Z,23.10
2019-02-28T11:00:42.350Z,23.10
2019-02-28T11:03:13.217Z,23.20
2019-02-28T11:05:45.008Z,23.20
2019-02-28T11:08:19.172Z,23.20
2019-02-28T11:10:49.281Z,23.30
2019-02-28T11:13:22.388Z,23.30
2019-02-28T11:15:54.881Z,23.30
2019-02-28T11:18:25.911Z,23.30
2019-02-28T11:20:58.034Z,23.30
2019-02-28T11:23:50.077Z,23.30
2019-02-28T11:26:36.725Z,23.30
2019-02-28T11:29:25.305Z,23.30
2019-02-28T11:32:14.054Z,23.30
2019-02-28T11:35:01.949Z,23.30
2019-02-28T11:37:51.889Z,23.30
2019-02-28T11:40:43.651Z,23.30
2019-02-28T11:43:37.564Z,23.30
2019-02-28T11:46:22.765Z,23.20
2019-02-28T11:49:11.255Z,23.20
2019-02-28T11:51:59.795Z,23.20
2019-02-28T11:54:47.817Z,23.20
2019-02-28T11:57:37.804Z,23.20
2019-02-28T12:00:32.515Z,23.10
2019-02-28T12:03:22.495Z,23.10
2019-02-28T12:06:10.789Z,23.00
2019-02-28T12:08:59.126Z,23.00
2019-02-28T12:11:47.541Z,23.00
2019-02-28T12:14:35.771Z,22.90
2019-02-28T12:17:25.581Z,23.00
2019-02-28T12:20:15.313Z,22.90
2019-02-28T12:23:03.722Z,22.90
2019-02-28T12:25:53.736Z,22.90
2019-02-28T12:28:41.819Z,23.00
2019-02-28T12:31:35.666Z,23.00
2019-02-28T12:34:22.845Z,23.00
2019-02-28T12:37:11.227Z,23.00
2019-02-28T12:40:00.668Z,23.00
2019-02-28T12:42:49.395Z,22.90
2019-02-28T12:45:39.986Z,22.90
2019-02-28T12:48:28.427Z,22.90
2019-02-28T12:51:17.139Z,23.00
2019-02-28T12:54:05.787Z,23.00
2019-02-28T12:56:53.839Z,23.00
2019-02-28T12:59:45.824Z,23.00
2019-02-28T13:02:32.316Z,23.00
2019-02-28T13:05:20.836Z,23.00
2019-02-28T13:08:09.086Z,22.90
2019-02-28T13:11:03.166Z,23.00
2019-02-28T13:13:29.777Z,22.90
2019-02-28T13:16:00.483Z,22.90
2019-02-28T13:18:31.153Z,22.90
2019-02-28T13:21:01.758Z,22.90
2019-02-28T13:23:50.322Z,22.90
2019-02-28T13:26:38.769Z,22.80
2019-02-28T13:29:28.793Z,22.80
2019-02-28T13:32:16.774Z,22.80
2019-02-28T13:35:09.159Z,22.80
2019-02-28T13:37:57.620Z,22.80
2019-02-28T13:40:46.264Z,22.80
2019-02-28T13:43:34.647Z,22.90
2019-02-28T13:46:22.947Z,22.90
2019-02-28T13:49:12.053Z,22.90
2019-02-28T13:52:01.458Z,22.90
2019-02-28T13:54:49.794Z,23.00
2019-02-28T13:57:40.719Z,22.90
2019-02-28T14:00:33.411Z,22.90
2019-02-28T14:03:21.935Z,22.90
2019-02-28T14:06:18.694Z,22.90
2019-02-28T14:09:01.697Z,22.90
2019-02-28T14:11:51.764Z,22.90
2019-02-28T14:14:42.320Z,22.90
2019-02-28T14:17:32.516Z,22.90
2019-02-28T14:20:20.097Z,22.80
2019-02-28T14:23:09.091Z,22.80
2019-02-28T14:25:57.295Z,22.80
2019-02-28T14:28:45.775Z,22.80
2019-02-28T14:31:36.132Z,22.80
2019-02-28T14:34:26.215Z,22.80
2019-02-28T14:37:16.827Z,22.70
2019-02-28T14:40:07.536Z,22.70
2019-02-28T14:42:56.091Z,22.80
2019-02-28T14:45:46.500Z,22.80
2019-02-28T14:48:39.647Z,22.70
2019-02-28T14:51:28.562Z,22.70
2019-02-28T14:54:16.527Z,22.70
2019-02-28T14:57:04.887Z,22.70
2019-02-28T14:59:53.620Z,22.70
2019-02-28T15:02:36.474Z,22.70
2019-02-28T15:05:24.879Z,22.80
2019-02-28T15:08:15.357Z,22.80
2019-02-28T15:11:03.313Z,22.80
2019-02-28T15:13:53.105Z,22.80
2019-02-28T15:16:41.479Z,22.80
2019-02-28T15:19:29.539Z,22.80
2019-02-28T15:22:21.011Z,22.80
2019-02-28T15:25:15.280Z,22.80
2019-02-28T15:28:04.076Z,22.80
2019-02-28T15:30:52.430Z,22.70
2019-02-28T15:33:40.642Z,22.70
2019-02-28T15:36:29.108Z,22.70
2019-02-28T15:39:18.434Z,22.70
2019-02-28T15:42:08.205Z,22.70
2019-02-28T15:44:56.999Z,22.70
2019-02-28T15:47:45.343Z,22.70
2019-02-28T15:50:33.861Z,22.70
2019-02-28T15:53:22.432Z,22.70
2019-02-28T15:56:13.555Z,22.60
2019-02-28T15:59:00.979Z,22.60
2019-02-28T16:01:32.186Z,22.60
2019-02-28T16:04:04.158Z,22.60
2019-02-28T16:06:38.144Z,22.60
2019-02-28T16:09:12.080Z,22.60
2019-02-28T16:11:45.682Z,22.60
2019-02-28T16:14:34.694Z,22.60
2019-02-28T16:17:26.445Z,22.70
2019-02-28T16:20:15.611Z,22.70
2019-02-28T16:23:04.413Z,22.70
2019-02-28T16:25:52.867Z,22.70
2019-02-28T16:28:42.771Z,22.70
2019-02-28T16:31:32.930Z,22.70
2019-02-28T16:34:21.183Z,22.70
2019-02-28T16:37:09.730Z,22.70
2019-02-28T16:39:58.026Z,22.70
2019-02-28T16:42:47.249Z,22.70
2019-02-28T16:45:41.088Z,22.60
2019-02-28T16:48:33.487Z,22.60
2019-02-28T16:51:21.319Z,22.60
2019-02-28T16:54:09.876Z,22.50
2019-02-28T16:56:58.009Z,22.50
2019-02-28T16:59:46.292Z,22.50
2019-02-28T17:02:34.660Z,22.50
2019-02-28T17:05:28.033Z,22.40
2019-02-28T17:08:15.624Z,22.40
2019-02-28T17:11:03.453Z,22.50
2019-02-28T17:13:53.786Z,22.50
2019-02-28T17:16:43.613Z,22.50
2019-02-28T17:19:14.228Z,22.50
2019-02-28T17:21:44.984Z,22.50
2019-02-28T17:24:15.733Z,22.50
2019-02-28T17:26:55.598Z,22.50
2019-02-28T17:29:33.967Z,22.50
2019-02-28T17:32:05.315Z,22.40
2019-02-28T17:34:35.946Z,22.50
2019-02-28T17:37:06.846Z,22.50
2019-02-28T17:39:37.634Z,22.50
2019-02-28T17:42:09.016Z,22.40
2019-02-28T17:44:49.002Z,22.50
2019-02-28T17:47:33.039Z,22.50
2019-02-28T17:50:44.563Z,22.50
2019-02-28T17:53:42.021Z,22.40
2019-02-28T17:56:51.802Z,22.40
2019-02-28T17:59:45.940Z,22.50
2019-02-28T18:03:02.350Z,22.50
2019-02-28T18:06:08.813Z,22.50
2019-02-28T18:09:04.777Z,22.40
2019-02-28T18:12:10.907Z,22.40
2019-02-28T18:15:17.480Z,22.40
2019-02-28T18:18:18.041Z,22.40
2019-02-28T18:21:27.311Z,22.30
2019-02-28T18:24:29.772Z,22.30
2019-02-28T18:27:43.663Z,22.30
2019-02-28T18:30:52.439Z,22.20
2019-02-28T18:33:45.093Z,22.20
2019-02-28T18:36:33.264Z,22.10
2019-02-28T18:39:21.483Z,22.10
2019-02-28T18:42:09.722Z,22.00
2019-02-28T18:44:58.020Z,22.00
2019-02-28T18:47:46.576Z,21.90
2019-02-28T18:50:34.951Z,21.90
2019-02-28T18:53:23.580Z,21.80
2019-02-28T18:56:11.897Z,21.80
2019-02-28T18:59:00.429Z,21.70
2019-02-28T19:01:48.826Z,21.70
2019-02-28T19:04:36.930Z,21.60
2019-02-28T19:07:24.974Z,21.60
2019-02-28T19:10:13.507Z,21.50
2019-02-28T19:13:01.749Z,21.50
2019-02-28T19:15:49.952Z,21.40
2019-02-28T19:18:38.354Z,21.40
2019-02-28T19:21:26.583Z,21.30
2019-02-28T19:24:14.616Z,21.30
2019-02-28T19:27:03.179Z,21.30
2019-02-28T19:29:51.394Z,21.20
2019-02-28T19:32:40.016Z,21.30
2019-02-28T19:35:28.468Z,21.20
2019-02-28T19:38:17.046Z,21.20
2019-02-28T19:41:05.426Z,21.20
2019-02-28T19:43:53.945Z,21.20
2019-02-28T19:46:42.489Z,21.20
2019-02-28T19:49:31.113Z,21.20
2019-02-28T19:52:19.914Z,21.20
2019-02-28T19:54:50.837Z,21.30
2019-02-28T19:57:39.164Z,21.30
2019-02-28T20:00:27.685Z,21.40
2019-02-28T20:03:16.407Z,21.40
2019-02-28T20:06:04.721Z,21.40
2019-02-28T20:08:53.343Z,21.40
2019-02-28T20:11:41.829Z,21.50
2019-02-28T20:14:30.572Z,21.50
2019-02-28T20:17:19.186Z,21.50
2019-02-28T20:20:13.600Z,21.50
2019-02-28T20:23:02.215Z,21.50
2019-02-28T20:25:50.648Z,21.50
2019-02-28T20:28:39.072Z,21.40
2019-02-28T20:31:27.426Z,21.40
2019-02-28T20:34:16.120Z,21.40
2019-02-28T20:37:04.526Z,21.40
2019-02-28T20:39:52.943Z,21.30
2019-02-28T20:42:41.767Z,21.30
2019-02-28T20:45:30.242Z,21.30
2019-02-28T20:48:19.553Z,21.20
2019-02-28T20:51:07.773Z,21.20
2019-02-28T20:53:56.291Z,21.20
2019-02-28T20:56:45.048Z,21.10
2019-02-28T20:59:33.480Z,21.10
2019-02-28T21:02:21.788Z,21.10
2019-02-28T21:05:10.120Z,21.10
2019-02-28T21:07:58.402Z,21.10
2019-02-28T21:10:47.029Z,21.10
2019-02-28T21:13:35.190Z,21.10
2019-02-28T21:16:23.531Z,21.00
2019-02-28T21:19:12.083Z,21.00
2019-02-28T21:22:00.427Z,21.00
2019-02-28T21:24:48.967Z,21.00
2019-02-28T21:27:37.220Z,20.90
2019-02-28T21:30:27.434Z,20.90
2019-02-28T21:33:15.688Z,20.90
2019-02-28T21:36:03.759Z,20.80
2019-02-28T21:38:52.900Z,20.80
2019-02-28T21:41:41.174Z,20.70
2019-02-28T21:44:29.610Z,20.70
2019-02-28T21:47:18.095Z,20.70
2019-02-28T21:50:09.594Z,20.60
2019-02-28T21:52:57.879Z,20.60
2019-02-28T21:55:28.527Z,20.60
2019-02-28T21:58:16.506Z,20.50
2019-02-28T22:01:05.451Z,20.50
2019-02-28T22:03:53.915Z,20.40
2019-02-28T22:06:42.106Z,20.40
2019-02-28T22:09:30.303Z,20.40
2019-02-28T22:12:18.683Z,20.30
2019-02-28T22:15:10.372Z,20.30
2019-02-28T22:17:58.831Z,20.20
2019-02-28T22:20:46.954Z,20.20
2019-02-28T22:23:35.358Z,20.10
2019-02-28T22:26:23.787Z,20.10
2019-02-28T22:29:12.180Z,20.00
2019-02-28T22:32:23.916Z,20.00
2019-02-28T22:35:06.573Z,19.90
2019-02-28T22:37:54.958Z,19.90
2019-02-28T22:40:43.174Z,19.80
2019-02-28T22:43:31.614Z,19.80
2019-02-28T22:46:19.638Z,19.80
2019-02-28T22:49:08.163Z,19.80
2019-02-28T22:51:56.537Z,19.70
2019-02-28T22:54:44.657Z,19.60
2019-02-28T22:57:33.210Z,19.60
2019-02-28T23:00:35.014Z,19.60
2019-02-28T23:03:22.968Z,19.50
2019-02-28T23:06:11.421Z,19.50
2019-02-28T23:08:59.526Z,19.40
2019-02-28T23:11:47.850Z,19.40
2019-02-28T23:14:36.101Z,19.40
2019-02-28T23:17:24.241Z,19.30
2019-02-28T23:20:12.665Z,19.30
2019-02-28T23:23:00.890Z,19.20
2019-02-28T23:25:49.105Z,19.20
2019-02-28T23:28:40.296Z,19.20
2019-02-28T23:31:46.679Z,19.10
2019-02-28T23:34:36.424Z,19.10
2019-02-28T23:37:24.890Z,19.00
2019-02-28T23:40:13.183Z,19.00
2019-02-28T23:43:01.710Z,19.00
2019-02-28T23:45:49.953Z,18.90
2019-02-28T23:48:37.906Z,18.90
2019-02-28T23:51:27.648Z,18.90
2019-02-28T23:54:15.783Z,18.80
2019-02-28T23:56:46.489Z,18.80
2019-02-28T23:59:34.781Z,18.80
